createdAt,value
2022-08-17T00:04:59.732Z,26.24
2022-08-17T00:10:04.745Z,26.28
2022-08-17T00:15:10.733Z,26.26
2022-08-17T00:20:14.575Z,26.24
2022-08-17T00:25:20.701Z,26.27
2022-08-17T00:30:24.312Z,26.09
2022-08-17T00:35:28.649Z,26.13
2022-08-17T00:40:44.447Z,26.19
2022-08-17T00:45:49.564Z,26.23
2022-08-17T00:50:59.333Z,26.21
2022-08-17T00:56:06.626Z,26.18
2022-08-17T01:01:37.030Z,26.12
2022-08-17T01:06:41.989Z,26.08
2022-08-17T01:11:52.238Z,25.98
2022-08-17T01:16:56.854Z,25.72
2022-08-17T01:22:05.189Z,25.69
2022-08-17T01:27:10.898Z,25.60
2022-08-17T01:32:14.734Z,25.48
2022-08-17T01:37:19.100Z,25.59
2022-08-17T01:42:28.252Z,25.54
2022-08-17T01:47:31.759Z,25.51
2022-08-17T01:52:39.633Z,25.33
2022-08-17T01:57:47.118Z,25.01
2022-08-17T02:02:50.661Z,25.04
2022-08-17T02:08:00.175Z,25.02
2022-08-17T02:13:05.836Z,25.06
2022-08-17T02:18:10.214Z,25.04
2022-08-17T02:23:14.390Z,24.89
2022-08-17T02:28:19.747Z,24.61
2022-08-17T02:33:23.283Z,24.59
2022-08-17T02:38:45.867Z,24.64
2022-08-17T02:43:51.115Z,24.73
2022-08-17T02:48:54.696Z,24.73
2022-08-17T02:54:38.791Z,24.74
2022-08-17T02:59:24.283Z,24.61
2022-08-17T03:04:27.731Z,24.59
2022-08-17T03:09:31.232Z,24.41
2022-08-17T03:14:41.228Z,24.37
2022-08-17T03:19:45.237Z,24.45
2022-08-17T03:24:48.700Z,24.37
2022-08-17T03:29:53.982Z,24.38
2022-08-17T03:35:01.237Z,24.46
2022-08-17T03:40:07.698Z,24.57
2022-08-17T03:45:15.568Z,24.48
2022-08-17T03:50:34.278Z,24.47
2022-08-17T03:55:55.787Z,24.50
2022-08-17T04:01:01.325Z,24.33
2022-08-17T04:06:05.456Z,24.09
2022-08-17T04:11:09.017Z,24.09
2022-08-17T04:16:13.826Z,23.97
2022-08-17T04:21:17.302Z,24.04
2022-08-17T04:26:53.139Z,24.03
2022-08-17T04:31:47.973Z,24.14
2022-08-17T04:36:52.561Z,24.18
2022-08-17T04:42:09.159Z,24.25
2022-08-17T04:47:14.107Z,24.24
2022-08-17T04:52:37.453Z,24.28
2022-08-17T04:57:45.044Z,24.38
2022-08-17T05:02:51.219Z,24.42
2022-08-17T05:07:56.231Z,24.62
2022-08-17T05:13:00.595Z,24.75
2022-08-17T05:18:06.156Z,24.82
2022-08-17T05:23:11.956Z,25.04
2022-08-17T05:28:16.259Z,25.12
2022-08-17T05:33:23.302Z,25.34
2022-08-17T05:38:28.530Z,25.71
2022-08-17T05:43:33.859Z,25.95
2022-08-17T05:48:43.474Z,26.15
2022-08-17T05:53:52.916Z,26.37
2022-08-17T05:59:01.345Z,26.47
2022-08-17T06:04:16.022Z,26.72
2022-08-17T06:09:34.028Z,26.68
2022-08-17T06:14:58.355Z,26.84
2022-08-17T06:20:10.852Z,27.14
2022-08-17T06:25:19.488Z,27.41
2022-08-17T06:30:25.697Z,27.68
2022-08-17T06:35:35.914Z,28.01
2022-08-17T06:40:52.867Z,28.21
2022-08-17T06:46:00.293Z,28.23
2022-08-17T06:51:08.548Z,28.48
2022-08-17T06:56:14.001Z,28.65
2022-08-17T07:01:20.912Z,28.72
2022-08-17T07:06:30.034Z,29.37
2022-08-17T07:11:51.775Z,29.74
2022-08-17T07:16:56.859Z,29.92
2022-08-17T07:22:13.935Z,29.94
2022-08-17T07:27:21.201Z,30.33
2022-08-17T07:32:27.182Z,30.39
2022-08-17T07:37:34.218Z,30.59
2022-08-17T07:42:41.820Z,30.89
2022-08-17T07:48:11.290Z,31.08
2022-08-17T07:53:23.372Z,31.31
2022-08-17T07:58:26.861Z,31.84
2022-08-17T08:03:31.963Z,32.23
2022-08-17T08:08:42.256Z,32.50
2022-08-17T08:13:46.197Z,32.53
2022-08-17T08:18:56.011Z,32.80
2022-08-17T08:24:14.020Z,33.04
2022-08-17T08:29:22.484Z,33.40
2022-08-17T08:34:47.431Z,33.65
2022-08-17T08:39:59.838Z,33.81
2022-08-17T08:45:08.946Z,33.85
2022-08-17T08:50:37.154Z,33.86
2022-08-17T08:55:51.111Z,34.05
2022-08-17T09:00:57.656Z,33.94
2022-08-17T09:06:32.453Z,34.33
2022-08-17T09:12:01.986Z,34.57
2022-08-17T09:17:06.940Z,34.69
2022-08-17T09:22:23.651Z,34.70
2022-08-17T09:27:34.754Z,35.51
2022-08-17T09:32:41.754Z,35.70
2022-08-17T09:37:52.859Z,36.02
2022-08-17T09:43:02.639Z,36.07
2022-08-17T09:48:09.668Z,36.40
2022-08-17T09:53:13.569Z,36.50
2022-08-17T09:58:29.028Z,35.87
2022-08-17T10:03:55.759Z,36.63
2022-08-17T10:09:08.287Z,36.94
2022-08-17T10:14:37.979Z,37.57
2022-08-17T10:19:49.391Z,37.42
2022-08-17T10:25:23.121Z,37.90
2022-08-17T10:30:32.243Z,37.87
2022-08-17T10:35:41.267Z,37.58
2022-08-17T10:40:49.315Z,38.28
2022-08-17T10:46:26.460Z,37.79
2022-08-17T10:51:37.902Z,38.11
2022-08-17T10:56:47.443Z,38.49
2022-08-17T11:02:12.169Z,39.10
2022-08-17T11:07:27.866Z,39.22
2022-08-17T11:12:38.944Z,39.12
2022-08-17T11:18:11.242Z,38.87
2022-08-17T11:23:32.517Z,38.84
2022-08-17T11:28:48.587Z,38.55
2022-08-17T11:33:59.256Z,38.44
2022-08-17T11:39:06.652Z,38.32
2022-08-17T11:44:21.834Z,38.31
2022-08-17T11:49:54.948Z,38.27
2022-08-17T11:55:17.731Z,38.37
2022-08-17T12:00:54.657Z,38.03
2022-08-17T12:06:05.571Z,38.22
2022-08-17T12:11:12.331Z,38.97
2022-08-17T12:16:16.751Z,39.27
2022-08-17T12:21:45.054Z,40.09
2022-08-17T12:26:53.255Z,40.15
2022-08-17T12:31:57.415Z,40.00
2022-08-17T12:37:04.306Z,39.07
2022-08-17T12:42:23.051Z,39.24
2022-08-17T12:47:29.388Z,39.31
2022-08-17T12:52:34.481Z,39.60
2022-08-17T12:57:42.887Z,39.78
2022-08-17T13:02:49.119Z,39.39
2022-08-17T13:07:54.807Z,39.33
2022-08-17T13:13:27.192Z,39.44
2022-08-17T13:18:40.869Z,39.37
2022-08-17T13:23:55.853Z,39.42
2022-08-17T13:28:59.712Z,39.46
2022-08-17T13:34:17.857Z,39.45
2022-08-17T13:39:25.615Z,39.46
2022-08-17T13:44:45.399Z,39.29
2022-08-17T13:49:49.842Z,39.40
2022-08-17T13:54:55.685Z,39.48
2022-08-17T14:00:10.949Z,39.20
2022-08-17T14:05:14.704Z,39.04
2022-08-17T14:10:20.136Z,38.62
2022-08-17T14:15:56.153Z,38.28
2022-08-17T14:20:49.483Z,37.80
2022-08-17T14:25:54.383Z,37.79
2022-08-17T14:30:57.968Z,37.47
2022-08-17T14:36:01.767Z,37.32
2022-08-17T14:41:06.862Z,37.34
2022-08-17T14:46:12.426Z,37.29
2022-08-17T14:51:16.055Z,37.07
2022-08-17T14:56:20.965Z,36.13
2022-08-17T15:01:26.945Z,34.84
2022-08-17T15:06:30.402Z,33.74
2022-08-17T15:11:35.206Z,32.85
2022-08-17T15:16:39.277Z,32.69
2022-08-17T15:21:42.847Z,32.57
2022-08-17T15:26:48.436Z,32.49
2022-08-17T15:31:51.891Z,31.47
2022-08-17T15:36:55.378Z,30.63
2022-08-17T15:42:03.592Z,31.20
2022-08-17T15:47:07.143Z,31.26
2022-08-17T15:52:17.028Z,30.86
2022-08-17T15:57:23.275Z,31.43
2022-08-17T16:03:14.735Z,32.21
2022-08-17T16:07:52.672Z,32.45
2022-08-17T16:12:58.617Z,31.30
2022-08-17T16:18:02.844Z,32.83
2022-08-17T16:23:06.369Z,33.65
2022-08-17T16:28:11.272Z,33.27
2022-08-17T16:33:16.586Z,33.15
2022-08-17T16:38:21.371Z,33.96
2022-08-17T16:43:26.269Z,33.59
2022-08-17T16:48:30.431Z,32.73
2022-08-17T16:53:33.990Z,33.63
2022-08-17T16:58:40.908Z,33.58
2022-08-17T17:03:48.619Z,33.93
2022-08-17T17:08:57.057Z,33.87
2022-08-17T17:14:05.167Z,33.68
2022-08-17T17:19:11.879Z,33.32
2022-08-17T17:24:17.682Z,33.34
2022-08-17T17:29:48.741Z,33.33
2022-08-17T17:35:02.667Z,33.27
2022-08-17T17:40:10.391Z,33.17
2022-08-17T17:45:21.039Z,32.98
2022-08-17T17:50:38.514Z,32.90
2022-08-17T17:55:47.988Z,32.74
2022-08-17T18:00:59.125Z,32.45
2022-08-17T18:06:16.225Z,32.18
2022-08-17T18:11:34.984Z,32.08
2022-08-17T18:16:42.699Z,31.92
2022-08-17T18:21:50.425Z,31.91
2022-08-17T18:26:55.619Z,31.49
2022-08-17T18:32:20.759Z,31.23
2022-08-17T18:37:49.667Z,31.13
2022-08-17T18:43:13.962Z,30.94
2022-08-17T18:48:26.099Z,30.92
2022-08-17T18:53:36.398Z,30.70
2022-08-17T18:58:40.544Z,30.67
2022-08-17T19:03:45.946Z,30.51
2022-08-17T19:08:49.535Z,30.29
2022-08-17T19:13:56.033Z,30.08
2022-08-17T19:19:05.299Z,29.95
2022-08-17T19:24:11.343Z,29.90
2022-08-17T19:29:16.584Z,29.66
2022-08-17T19:34:33.462Z,29.57
2022-08-17T19:39:44.039Z,29.46
2022-08-17T19:44:54.448Z,29.24
2022-08-17T19:50:05.104Z,29.00
2022-08-17T19:55:19.843Z,28.87
2022-08-17T20:00:24.394Z,28.62
2022-08-17T20:05:40.619Z,28.53
2022-08-17T20:10:58.935Z,28.41
2022-08-17T20:16:03.389Z,28.15
2022-08-17T20:21:20.023Z,28.07
2022-08-17T20:26:28.069Z,28.09
2022-08-17T20:31:48.806Z,27.92
2022-08-17T20:37:01.189Z,27.89
2022-08-17T20:42:11.312Z,27.83
2022-08-17T20:47:26.946Z,27.70
2022-08-17T20:52:48.620Z,27.61
2022-08-17T20:57:52.338Z,27.37
2022-08-17T21:03:50.695Z,27.28
2022-08-17T21:08:59.418Z,27.27
2022-08-17T21:14:08.225Z,27.14
2022-08-17T21:19:30.964Z,27.06
2022-08-17T21:24:43.461Z,26.89
2022-08-17T21:29:56.527Z,26.89
2022-08-17T21:35:23.542Z,26.80
2022-08-17T21:40:31.265Z,26.83
2022-08-17T21:45:37.163Z,26.67
2022-08-17T21:50:42.885Z,26.33
2022-08-17T21:55:50.189Z,26.50
2022-08-17T22:01:22.431Z,26.55
2022-08-17T22:06:28.380Z,26.49
2022-08-17T22:11:34.450Z,26.23
2022-08-17T22:16:38.922Z,26.08
2022-08-17T22:28:08.197Z,26.18
2022-08-17T22:33:36.816Z,26.06
2022-08-17T22:38:41.034Z,26.17
2022-08-17T22:43:48.741Z,26.09
2022-08-17T22:48:57.790Z,26.05
2022-08-17T22:54:20.754Z,25.94
2022-08-17T22:59:41.790Z,25.95
2022-08-17T23:04:48.483Z,25.88
2022-08-17T23:09:54.199Z,25.97
2022-08-17T23:15:01.508Z,25.69
2022-08-17T23:20:06.464Z,25.79
2022-08-17T23:25:11.266Z,25.80
2022-08-17T23:30:16.444Z,25.87
2022-08-17T23:35:38.960Z,25.86
2022-08-17T23:40:58.128Z,25.74
2022-08-17T23:46:04.526Z,25.46
2022-08-17T23:51:11.129Z,25.43
2022-08-17T23:56:15.104Z,25.55
